createdAt,value
2023-05-14T00:01:19.617Z,62.19
2023-05-14T00:03:46.145Z,61.78
2023-05-14T00:06:12.818Z,61.69
2023-05-14T00:08:39.340Z,62.96
2023-05-14T00:11:05.897Z,64.07
2023-05-14T00:13:32.471Z,63.84
2023-05-14T00:15:58.966Z,64.16
2023-05-14T00:18:25.626Z,64.63
2023-05-14T00:20:54.761Z,65.43
2023-05-14T00:23:22.583Z,64.90
2023-05-14T00:25:49.632Z,64.16
2023-05-14T00:28:16.796Z,63.39
2023-05-14T00:30:44.683Z,63.28
2023-05-14T00:33:11.382Z,63.27
2023-05-14T00:35:38.001Z,62.91
2023-05-14T00:38:05.011Z,62.59
2023-05-14T00:40:31.604Z,62.39
2023-05-14T00:42:58.133Z,62.18
2023-05-14T00:45:25.626Z,61.46
2023-05-14T00:47:53.474Z,61.11
2023-05-14T00:50:21.127Z,61.53
2023-05-14T00:52:47.979Z,61.90
2023-05-14T00:55:16.978Z,62.01
2023-05-14T00:57:44.262Z,61.63
2023-05-14T01:00:11.339Z,61.36
2023-05-14T01:02:38.103Z,61.21
2023-05-14T01:05:05.690Z,61.17
2023-05-14T01:07:55.263Z,61.31
2023-05-14T01:10:39.080Z,61.54
2023-05-14T01:13:21.848Z,61.48
2023-05-14T01:15:49.237Z,61.22
2023-05-14T01:18:18.288Z,61.02
2023-05-14T01:20:45.960Z,60.82
2023-05-14T01:23:12.457Z,60.72
2023-05-14T01:25:38.981Z,60.51
2023-05-14T01:28:15.393Z,59.99
2023-05-14T01:30:57.343Z,60.34
2023-05-14T01:33:27.644Z,60.82
2023-05-14T01:35:54.970Z,60.76
2023-05-14T01:38:23.338Z,61.08
2023-05-14T01:40:50.822Z,60.91
2023-05-14T01:43:18.750Z,60.78
2023-05-14T01:45:45.534Z,60.39
2023-05-14T01:48:12.565Z,60.14
2023-05-14T01:50:39.156Z,58.93
2023-05-14T01:53:05.789Z,58.82
2023-05-14T01:55:32.322Z,60.20
2023-05-14T01:57:59.007Z,63.78
2023-05-14T02:00:26.268Z,66.04
2023-05-14T02:02:53.163Z,65.18
2023-05-14T02:05:19.817Z,64.80
2023-05-14T02:07:46.414Z,64.39
2023-05-14T02:10:13.316Z,63.94
2023-05-14T02:12:39.925Z,63.35
2023-05-14T02:15:08.917Z,63.07
2023-05-14T02:17:39.190Z,62.59
2023-05-14T02:20:06.411Z,62.33
2023-05-14T02:22:33.061Z,62.36
2023-05-14T02:24:59.562Z,62.58
2023-05-14T02:27:26.135Z,62.56
2023-05-14T02:29:52.852Z,61.91
2023-05-14T02:32:19.497Z,61.53
2023-05-14T02:34:46.076Z,61.16
2023-05-14T02:37:12.649Z,60.84
2023-05-14T02:39:39.140Z,60.44
2023-05-14T02:42:06.988Z,60.69
2023-05-14T02:44:33.688Z,60.52
2023-05-14T02:47:00.252Z,60.45
2023-05-14T02:49:26.783Z,60.61
2023-05-14T02:51:54.350Z,61.46
2023-05-14T02:54:20.927Z,61.76
2023-05-14T02:56:47.574Z,61.78
2023-05-14T02:59:14.369Z,62.00
2023-05-14T03:01:41.425Z,61.86
2023-05-14T03:04:08.645Z,62.00
2023-05-14T03:06:35.264Z,61.90
2023-05-14T03:09:01.810Z,61.57
2023-05-14T03:11:28.421Z,61.31
2023-05-14T03:13:54.950Z,61.16
2023-05-14T03:16:21.497Z,60.83
2023-05-14T03:18:48.142Z,60.50
2023-05-14T03:21:14.803Z,60.26
2023-05-14T03:23:41.517Z,60.36
2023-05-14T03:26:13.955Z,60.09
2023-05-14T03:28:40.838Z,60.29
2023-05-14T03:31:07.466Z,60.52
2023-05-14T03:33:34.074Z,60.79
2023-05-14T03:36:00.630Z,61.15
2023-05-14T03:38:27.205Z,61.37
2023-05-14T03:40:53.712Z,61.23
2023-05-14T03:43:20.356Z,61.31
2023-05-14T03:45:52.257Z,61.37
2023-05-14T03:48:19.772Z,61.43
2023-05-14T03:50:46.908Z,61.44
2023-05-14T03:53:13.524Z,61.38
2023-05-14T03:55:40.138Z,61.34
2023-05-14T03:58:14.360Z,61.08
2023-05-14T04:00:44.109Z,60.56
2023-05-14T04:03:11.263Z,60.27
2023-05-14T04:05:37.900Z,59.88
2023-05-14T04:08:04.587Z,58.88
2023-05-14T04:10:32.022Z,59.53
2023-05-14T04:12:59.505Z,61.51
2023-05-14T04:15:31.026Z,64.58
2023-05-14T04:17:57.709Z,63.18
2023-05-14T04:20:24.475Z,62.58
2023-05-14T04:22:51.171Z,62.24
2023-05-14T04:25:18.508Z,62.75
2023-05-14T04:27:45.304Z,62.71
2023-05-14T04:30:12.486Z,61.93
2023-05-14T04:32:39.230Z,60.51
2023-05-14T04:35:06.642Z,58.91
2023-05-14T04:37:33.365Z,58.81
2023-05-14T04:40:00.910Z,59.67
2023-05-14T04:42:27.545Z,62.67
2023-05-14T04:44:54.033Z,63.21
2023-05-14T04:47:21.125Z,61.38
2023-05-14T04:49:47.841Z,59.26
2023-05-14T04:52:14.365Z,57.89
2023-05-14T04:54:41.060Z,59.62
2023-05-14T04:57:07.598Z,62.00
2023-05-14T04:59:34.185Z,61.46
2023-05-14T05:02:00.699Z,58.79
2023-05-14T05:04:27.794Z,57.93
2023-05-14T05:06:54.305Z,58.87
2023-05-14T05:09:21.285Z,60.83
2023-05-14T05:11:47.816Z,62.37
2023-05-14T05:14:14.367Z,59.32
2023-05-14T05:16:40.972Z,59.14
2023-05-14T05:19:07.588Z,60.00
2023-05-14T05:21:34.799Z,59.08
2023-05-14T05:24:01.275Z,58.95
2023-05-14T05:26:28.091Z,59.64
2023-05-14T05:28:54.656Z,59.73
2023-05-14T05:31:21.268Z,60.36
2023-05-14T05:33:48.100Z,60.81
2023-05-14T05:36:14.670Z,60.01
2023-05-14T05:38:41.357Z,60.93
2023-05-14T05:41:08.073Z,60.35
2023-05-14T05:43:34.713Z,60.05
2023-05-14T05:46:01.617Z,58.64
2023-05-14T05:48:28.321Z,57.44
2023-05-14T05:50:55.126Z,56.96
2023-05-14T05:53:21.766Z,57.08
2023-05-14T05:55:48.371Z,56.27
2023-05-14T05:58:17.155Z,56.24
2023-05-14T06:00:44.009Z,55.63
2023-05-14T06:03:11.303Z,55.27
2023-05-14T06:05:38.060Z,54.65
2023-05-14T06:08:05.101Z,54.04
2023-05-14T06:10:31.980Z,54.05
2023-05-14T06:12:58.531Z,53.14
2023-05-14T06:15:25.129Z,52.38
2023-05-14T06:17:51.886Z,52.75
2023-05-14T06:20:19.086Z,50.97
2023-05-14T06:22:45.718Z,50.70
2023-05-14T06:25:12.365Z,50.06
2023-05-14T06:27:38.950Z,49.46
2023-05-14T06:30:07.015Z,48.19
2023-05-14T06:32:33.603Z,47.51
2023-05-14T06:35:00.188Z,47.15
2023-05-14T06:37:26.792Z,46.73
2023-05-14T06:39:54.750Z,45.98
2023-05-14T06:42:23.031Z,44.94
2023-05-14T06:44:49.568Z,44.74
2023-05-14T06:47:16.205Z,43.06
2023-05-14T06:49:42.801Z,43.17
2023-05-14T06:52:09.336Z,42.95
2023-05-14T06:54:36.020Z,40.43
2023-05-14T06:57:02.618Z,36.77
2023-05-14T06:59:29.309Z,34.78
2023-05-14T07:01:55.938Z,30.34
2023-05-14T07:04:22.636Z,28.63
2023-05-14T07:06:49.365Z,27.18
2023-05-14T07:09:16.528Z,25.75
2023-05-14T07:11:43.475Z,24.60
2023-05-14T07:14:10.057Z,24.09
2023-05-14T07:16:37.109Z,23.30
2023-05-14T07:19:03.741Z,22.27
2023-05-14T07:21:30.355Z,21.45
2023-05-14T07:23:56.938Z,20.86
2023-05-14T07:26:24.579Z,20.76
2023-05-14T07:28:51.297Z,21.48
2023-05-14T07:31:17.934Z,22.38
2023-05-14T07:33:47.507Z,21.57
2023-05-14T07:36:14.085Z,20.67
2023-05-14T07:38:40.774Z,19.25
2023-05-14T07:41:07.891Z,19.19
2023-05-14T07:43:34.651Z,18.76
2023-05-14T07:46:01.220Z,19.02
2023-05-14T07:48:27.827Z,18.07
2023-05-14T07:50:54.617Z,16.94
2023-05-14T07:53:22.006Z,17.88
2023-05-14T07:55:49.285Z,17.57
2023-05-14T07:58:16.752Z,17.16
2023-05-14T08:00:43.538Z,18.40
2023-05-14T08:03:10.435Z,18.29
2023-05-14T08:05:39.621Z,17.88
2023-05-14T08:08:06.612Z,17.16
2023-05-14T08:10:33.217Z,17.16
2023-05-14T08:12:59.785Z,16.70
2023-05-14T08:15:27.831Z,15.81
2023-05-14T08:17:54.952Z,15.82
2023-05-14T08:20:22.218Z,16.16
2023-05-14T08:22:48.964Z,16.61
2023-05-14T08:25:15.665Z,16.61
2023-05-14T08:27:42.238Z,16.33
2023-05-14T08:30:09.209Z,16.98
2023-05-14T08:32:35.857Z,16.84
2023-05-14T08:35:02.502Z,16.80
2023-05-14T08:37:29.084Z,16.94
2023-05-14T08:39:56.244Z,16.97
2023-05-14T08:42:24.724Z,17.19
2023-05-14T08:45:00.908Z,18.01
2023-05-14T08:47:30.237Z,18.07
2023-05-14T08:50:08.156Z,17.54
2023-05-14T08:52:35.042Z,16.73
2023-05-14T08:55:05.592Z,16.83
2023-05-14T08:57:33.316Z,17.52
2023-05-14T09:00:00.423Z,17.77
2023-05-14T09:02:31.550Z,18.55
2023-05-14T09:05:00.101Z,18.11
2023-05-14T09:07:27.544Z,18.38
2023-05-14T09:09:54.988Z,18.18
2023-05-14T09:12:22.135Z,18.17
2023-05-14T09:14:49.788Z,18.54
2023-05-14T09:17:17.432Z,17.91
2023-05-14T09:19:47.352Z,17.85
2023-05-14T09:22:15.975Z,18.30
2023-05-14T09:24:43.178Z,17.99
2023-05-14T09:27:15.246Z,17.69
2023-05-14T09:29:41.851Z,16.77
2023-05-14T09:32:10.274Z,16.62
2023-05-14T09:34:39.699Z,16.22
2023-05-14T09:37:08.016Z,16.05
2023-05-14T09:39:36.502Z,16.08
2023-05-14T09:42:03.784Z,16.39
2023-05-14T09:44:30.726Z,17.65
2023-05-14T09:46:57.620Z,16.91
2023-05-14T09:49:24.215Z,17.64
2023-05-14T09:51:51.583Z,17.94
2023-05-14T09:54:18.252Z,18.08
2023-05-14T09:56:44.969Z,18.87
2023-05-14T09:59:11.662Z,18.87
2023-05-14T10:01:38.621Z,18.82
2023-05-14T10:04:08.188Z,18.51
2023-05-14T10:06:39.325Z,18.31
2023-05-14T10:09:12.372Z,17.76
2023-05-14T10:11:43.623Z,17.22
2023-05-14T10:14:20.714Z,16.88
2023-05-14T10:16:51.087Z,16.94
2023-05-14T10:19:20.805Z,17.75
2023-05-14T10:21:59.778Z,17.76
2023-05-14T10:24:27.482Z,18.82
2023-05-14T10:26:54.321Z,19.58
2023-05-14T10:29:31.484Z,19.39
2023-05-14T10:31:58.007Z,19.62
2023-05-14T10:34:34.571Z,19.26
2023-05-14T10:37:02.369Z,19.00
2023-05-14T10:39:49.634Z,18.84
2023-05-14T10:42:21.719Z,17.94
2023-05-14T10:45:01.531Z,18.37
2023-05-14T10:47:29.521Z,19.17
2023-05-14T10:50:03.788Z,19.44
2023-05-14T10:52:31.064Z,19.66
2023-05-14T10:55:03.691Z,18.92
2023-05-14T10:57:32.309Z,18.67
2023-05-14T11:00:03.174Z,19.22
2023-05-14T11:02:41.253Z,18.77
2023-05-14T11:05:11.034Z,18.44
2023-05-14T11:07:38.517Z,18.31
2023-05-14T11:10:10.239Z,18.78
2023-05-14T11:12:40.941Z,18.52
2023-05-14T11:15:13.296Z,18.80
2023-05-14T11:17:41.650Z,18.34
2023-05-14T11:20:09.610Z,18.29
2023-05-14T11:22:37.436Z,17.65
2023-05-14T11:25:04.861Z,18.41
2023-05-14T11:27:33.591Z,18.97
2023-05-14T11:30:01.051Z,18.93
2023-05-14T11:32:27.858Z,19.18
2023-05-14T11:34:54.587Z,19.52
2023-05-14T11:37:24.136Z,19.54
2023-05-14T11:39:52.852Z,20.03
2023-05-14T11:42:20.855Z,19.51
2023-05-14T11:44:49.080Z,19.08
2023-05-14T11:47:18.262Z,18.63
2023-05-14T11:49:45.885Z,19.66
2023-05-14T11:52:14.859Z,19.23
2023-05-14T11:54:43.039Z,18.89
2023-05-14T11:57:12.596Z,18.55
2023-05-14T11:59:39.888Z,19.64
2023-05-14T12:02:10.599Z,20.26
2023-05-14T12:04:37.391Z,20.79
2023-05-14T12:07:12.877Z,19.84
2023-05-14T12:09:44.207Z,19.56
2023-05-14T12:12:12.874Z,19.25
2023-05-14T12:14:45.410Z,19.53
2023-05-14T12:17:14.969Z,19.91
2023-05-14T12:19:42.546Z,19.60
2023-05-14T12:22:11.005Z,19.62
2023-05-14T12:24:39.179Z,19.61
2023-05-14T12:27:07.402Z,19.65
2023-05-14T12:29:41.334Z,19.62
2023-05-14T12:32:09.321Z,19.07
2023-05-14T12:34:37.888Z,19.82
2023-05-14T12:37:05.583Z,19.31
2023-05-14T12:39:35.660Z,19.19
2023-05-14T12:42:02.427Z,19.16
2023-05-14T12:44:29.114Z,19.60
2023-05-14T12:46:56.045Z,20.04
2023-05-14T12:49:22.750Z,19.81
2023-05-14T12:51:51.209Z,19.89
2023-05-14T12:54:24.352Z,19.31
2023-05-14T12:56:50.967Z,19.33
2023-05-14T12:59:17.612Z,20.23
2023-05-14T13:01:44.273Z,20.78
2023-05-14T13:04:14.416Z,21.56
2023-05-14T13:06:41.346Z,21.84
2023-05-14T13:09:08.753Z,21.07
2023-05-14T13:11:35.712Z,20.75
2023-05-14T13:14:02.568Z,20.62
2023-05-14T13:16:30.122Z,20.75
2023-05-14T13:18:56.812Z,21.82
2023-05-14T13:21:23.378Z,21.80
2023-05-14T13:23:49.923Z,21.20
2023-05-14T13:26:16.491Z,21.46
2023-05-14T13:28:43.328Z,21.69
2023-05-14T13:31:11.930Z,21.56
2023-05-14T13:33:40.883Z,22.04
2023-05-14T13:36:08.438Z,22.72
2023-05-14T13:38:35.418Z,22.60
2023-05-14T13:41:02.721Z,23.23
2023-05-14T13:43:33.921Z,24.19
2023-05-14T13:46:01.562Z,24.57
2023-05-14T13:48:28.481Z,24.42
2023-05-14T13:50:55.163Z,24.79
2023-05-14T13:53:23.117Z,25.07
2023-05-14T13:55:50.410Z,25.10
2023-05-14T13:58:17.227Z,25.60
2023-05-14T14:00:43.907Z,25.61
2023-05-14T14:03:10.715Z,26.13
2023-05-14T14:05:37.701Z,26.89
2023-05-14T14:08:17.769Z,27.72
2023-05-14T14:10:49.834Z,26.91
2023-05-14T14:13:16.447Z,26.79
2023-05-14T14:15:43.691Z,26.63
2023-05-14T14:18:10.469Z,26.99
2023-05-14T14:20:37.191Z,27.20
2023-05-14T14:23:03.927Z,28.19
2023-05-14T14:25:30.630Z,27.75
2023-05-14T14:27:57.354Z,27.61
2023-05-14T14:30:24.052Z,27.93
2023-05-14T14:32:51.190Z,27.91
2023-05-14T14:35:19.381Z,28.94
2023-05-14T14:37:49.347Z,28.88
2023-05-14T14:40:17.172Z,28.86
2023-05-14T14:42:44.378Z,28.23
2023-05-14T14:45:12.119Z,28.12
2023-05-14T14:47:38.976Z,27.99
2023-05-14T14:50:06.486Z,28.34
2023-05-14T14:52:33.207Z,28.57
2023-05-14T14:54:59.816Z,28.80
2023-05-14T14:57:26.879Z,29.25
2023-05-14T14:59:53.468Z,29.21
2023-05-14T15:02:20.264Z,30.05
2023-05-14T15:04:46.898Z,29.71
2023-05-14T15:07:15.937Z,28.71
2023-05-14T15:09:43.357Z,28.96
2023-05-14T15:12:11.185Z,28.68
2023-05-14T15:14:37.831Z,28.53
2023-05-14T15:17:04.619Z,28.95
2023-05-14T15:19:32.282Z,28.68
2023-05-14T15:21:58.861Z,28.62
2023-05-14T15:24:26.174Z,28.81
2023-05-14T15:26:53.661Z,29.09
2023-05-14T15:29:20.530Z,29.09
2023-05-14T15:31:47.271Z,28.11
2023-05-14T15:34:14.000Z,28.35
2023-05-14T15:36:40.812Z,29.07
2023-05-14T15:39:10.298Z,29.83
2023-05-14T15:41:38.124Z,29.80
2023-05-14T15:44:05.024Z,29.65
2023-05-14T15:46:32.193Z,30.32
2023-05-14T15:48:58.769Z,29.91
2023-05-14T15:51:25.477Z,30.10
2023-05-14T15:53:54.096Z,30.71
2023-05-14T15:56:23.794Z,30.36
2023-05-14T15:58:50.536Z,29.72
2023-05-14T16:01:19.371Z,30.27
2023-05-14T16:03:46.159Z,30.82
2023-05-14T16:06:13.048Z,30.52
2023-05-14T16:08:39.698Z,30.92
2023-05-14T16:11:07.585Z,31.50
2023-05-14T16:13:37.597Z,31.71
2023-05-14T16:16:04.398Z,31.48
2023-05-14T16:18:31.112Z,31.43
2023-05-14T16:20:57.815Z,31.95
2023-05-14T16:23:24.367Z,31.62
2023-05-14T16:25:51.079Z,31.93
2023-05-14T16:28:17.672Z,32.08
2023-05-14T16:30:47.259Z,32.23
2023-05-14T16:33:13.904Z,32.15
2023-05-14T16:35:40.504Z,32.37
2023-05-14T16:38:07.118Z,32.37
2023-05-14T16:40:33.677Z,32.02
2023-05-14T16:43:00.376Z,32.14
2023-05-14T16:45:27.198Z,32.24
2023-05-14T16:47:54.153Z,32.65
2023-05-14T16:50:20.967Z,32.30
2023-05-14T16:52:47.595Z,32.90
2023-05-14T16:55:14.296Z,33.59
2023-05-14T16:57:41.039Z,33.25
2023-05-14T17:00:09.882Z,33.18
2023-05-14T17:02:36.978Z,33.54
2023-05-14T17:05:04.164Z,32.64
2023-05-14T17:07:31.439Z,32.30
2023-05-14T17:09:58.610Z,32.84
2023-05-14T17:12:26.098Z,33.11
2023-05-14T17:14:53.071Z,33.52
2023-05-14T17:17:19.600Z,33.65
2023-05-14T17:19:46.261Z,33.67
2023-05-14T17:22:15.807Z,33.89
2023-05-14T17:24:42.397Z,34.10
2023-05-14T17:27:09.129Z,34.16
2023-05-14T17:29:35.721Z,34.53
2023-05-14T17:32:03.645Z,34.72
2023-05-14T17:34:30.495Z,34.91
2023-05-14T17:36:57.384Z,35.16
2023-05-14T17:39:24.019Z,35.63
2023-05-14T17:41:50.607Z,35.62
2023-05-14T17:44:17.192Z,35.88
2023-05-14T17:46:44.667Z,36.12
2023-05-14T17:49:11.991Z,36.23
2023-05-14T17:51:38.539Z,36.66
2023-05-14T17:54:05.200Z,37.16
2023-05-14T17:56:31.864Z,37.86
2023-05-14T17:58:58.537Z,38.06
2023-05-14T18:01:25.133Z,38.38
2023-05-14T18:03:52.269Z,39.09
2023-05-14T18:06:18.899Z,39.21
2023-05-14T18:08:45.479Z,39.48
2023-05-14T18:11:12.349Z,39.67
2023-05-14T18:13:38.949Z,40.11
2023-05-14T18:16:05.736Z,40.63
2023-05-14T18:18:32.378Z,40.84
2023-05-14T18:20:59.133Z,41.14
2023-05-14T18:23:25.742Z,40.75
2023-05-14T18:25:52.381Z,41.24
2023-05-14T18:28:21.339Z,41.20
2023-05-14T18:30:49.337Z,41.72
2023-05-14T18:33:16.202Z,42.22
2023-05-14T18:35:43.716Z,42.29
2023-05-14T18:38:11.855Z,43.20
2023-05-14T18:40:38.533Z,43.67
2023-05-14T18:43:05.225Z,44.34
2023-05-14T18:45:31.882Z,44.54
2023-05-14T18:47:58.558Z,44.90
2023-05-14T18:50:25.099Z,44.88
2023-05-14T18:52:51.653Z,44.70
2023-05-14T18:55:18.290Z,45.01
2023-05-14T18:57:44.934Z,45.43
2023-05-14T19:00:14.332Z,46.02
2023-05-14T19:02:41.405Z,46.35
2023-05-14T19:05:08.349Z,46.26
2023-05-14T19:07:35.063Z,46.54
2023-05-14T19:10:01.689Z,46.34
2023-05-14T19:12:29.489Z,46.40
2023-05-14T19:14:56.093Z,47.34
2023-05-14T19:17:22.778Z,47.67
2023-05-14T19:19:49.418Z,47.73
2023-05-14T19:22:18.585Z,47.92
2023-05-14T19:24:45.114Z,48.73
2023-05-14T19:27:16.039Z,50.18
2023-05-14T19:29:43.661Z,49.81
2023-05-14T19:32:10.542Z,49.53
2023-05-14T19:34:37.149Z,49.42
2023-05-14T19:37:04.662Z,49.13
2023-05-14T19:39:31.520Z,48.93
2023-05-14T19:41:59.398Z,49.20
2023-05-14T19:44:26.024Z,49.02
2023-05-14T19:46:52.720Z,48.74
2023-05-14T19:49:19.367Z,48.61
2023-05-14T19:51:46.007Z,48.44
2023-05-14T19:54:12.648Z,48.69
2023-05-14T19:56:39.248Z,49.71
2023-05-14T19:59:05.961Z,50.15
2023-05-14T20:01:34.334Z,49.94
2023-05-14T20:04:01.236Z,50.99
2023-05-14T20:06:28.058Z,51.59
2023-05-14T20:08:55.333Z,52.06
2023-05-14T20:11:21.936Z,52.65
2023-05-14T20:13:49.707Z,53.48
2023-05-14T20:16:16.884Z,53.73
2023-05-14T20:18:44.303Z,53.96
2023-05-14T20:21:11.044Z,54.25
2023-05-14T20:23:37.760Z,54.44
2023-05-14T20:26:04.618Z,55.32
2023-05-14T20:28:31.471Z,54.82
2023-05-14T20:31:02.928Z,55.63
2023-05-14T20:33:30.752Z,55.74
2023-05-14T20:35:57.490Z,55.84
2023-05-14T20:38:25.659Z,56.30
2023-05-14T20:40:52.210Z,56.75
2023-05-14T20:43:18.826Z,56.53
2023-05-14T20:45:45.482Z,57.27
2023-05-14T20:48:16.096Z,56.96
2023-05-14T20:50:43.311Z,56.25
2023-05-14T20:53:09.967Z,55.87
2023-05-14T20:55:36.695Z,55.67
2023-05-14T20:58:03.457Z,55.57
2023-05-14T21:00:30.276Z,55.24
2023-05-14T21:02:57.396Z,55.08
2023-05-14T21:05:24.884Z,54.89
2023-05-14T21:07:51.725Z,54.61
2023-05-14T21:10:18.581Z,54.31
2023-05-14T21:12:45.290Z,54.07
2023-05-14T21:15:11.989Z,54.09
2023-05-14T21:17:38.700Z,53.89
2023-05-14T21:20:06.343Z,53.78
2023-05-14T21:22:33.111Z,53.31
2023-05-14T21:24:59.728Z,53.53
2023-05-14T21:27:26.713Z,53.39
2023-05-14T21:29:53.432Z,53.07
2023-05-14T21:32:22.128Z,53.10
2023-05-14T21:34:49.240Z,52.87
2023-05-14T21:37:15.936Z,52.65
2023-05-14T21:39:42.446Z,52.94
2023-05-14T21:42:09.629Z,52.68
2023-05-14T21:44:36.303Z,52.63
2023-05-14T21:47:03.852Z,52.59
2023-05-14T21:49:30.605Z,52.52
2023-05-14T21:51:57.354Z,52.31
2023-05-14T21:54:24.090Z,52.22
2023-05-14T21:56:50.946Z,52.00
2023-05-14T21:59:17.629Z,51.76
2023-05-14T22:04:13.890Z,51.65
2023-05-14T22:06:40.895Z,51.71
2023-05-14T22:09:10.633Z,51.43
2023-05-14T22:11:37.392Z,51.51
2023-05-14T22:14:03.971Z,51.59
2023-05-14T22:16:30.723Z,51.24
2023-05-14T22:18:57.421Z,50.91
2023-05-14T22:21:24.073Z,50.78
2023-05-14T22:23:50.728Z,50.68
2023-05-14T22:26:17.355Z,50.83
2023-05-14T22:28:43.903Z,50.71
2023-05-14T22:31:10.710Z,50.36
2023-05-14T22:33:37.387Z,50.22
2023-05-14T22:36:06.894Z,50.05
2023-05-14T22:38:34.074Z,50.36
2023-05-14T22:41:00.642Z,50.01
2023-05-14T22:43:27.225Z,49.93
2023-05-14T22:45:53.803Z,50.16
2023-05-14T22:48:20.293Z,49.81
2023-05-14T22:50:46.774Z,49.95
2023-05-14T22:53:13.514Z,49.82
2023-05-14T22:55:40.107Z,50.01
2023-05-14T22:58:07.055Z,50.16
2023-05-14T23:00:33.608Z,49.66
2023-05-14T23:03:00.332Z,49.50
2023-05-14T23:05:27.235Z,50.27
2023-05-14T23:07:55.320Z,49.47
2023-05-14T23:10:21.961Z,49.44
2023-05-14T23:12:48.479Z,49.33
2023-05-14T23:15:15.240Z,49.48
2023-05-14T23:17:42.004Z,49.21
2023-05-14T23:20:12.595Z,48.91
2023-05-14T23:22:40.143Z,48.96
2023-05-14T23:25:07.700Z,48.92
2023-05-14T23:27:34.932Z,49.11
2023-05-14T23:30:03.086Z,49.45
2023-05-14T23:32:29.846Z,48.69
2023-05-14T23:34:56.368Z,48.63
2023-05-14T23:37:23.203Z,48.76
2023-05-14T23:39:50.105Z,48.79
2023-05-14T23:42:16.669Z,48.72
2023-05-14T23:44:43.363Z,48.72
2023-05-14T23:47:10.148Z,48.84
2023-05-14T23:49:36.857Z,48.76
2023-05-14T23:52:03.546Z,48.55
2023-05-14T23:54:30.179Z,48.64
2023-05-14T23:56:56.745Z,48.57
2023-05-14T23:59:23.270Z,48.35
